createdAt,value
2022-12-22T00:01:04.277Z,168.68
2022-12-22T00:03:51.488Z,172.93
2022-12-22T00:06:37.211Z,171.40
2022-12-22T00:09:22.789Z,172.43
2022-12-22T00:12:08.138Z,178.43
2022-12-22T00:14:53.584Z,177.13
2022-12-22T00:17:43.528Z,177.90
2022-12-22T00:20:35.906Z,172.43
2022-12-22T00:23:21.404Z,169.90
2022-12-22T00:26:07.338Z,174.48
2022-12-22T00:28:54.394Z,176.80
2022-12-22T00:31:41.591Z,181.93
2022-12-22T00:34:32.732Z,178.32
2022-12-22T00:37:19.812Z,183.90
2022-12-22T00:40:05.284Z,179.50
2022-12-22T00:42:50.570Z,186.00
2022-12-22T00:45:36.001Z,179.75
2022-12-22T00:48:22.180Z,183.40
2022-12-22T00:51:08.140Z,179.52
2022-12-22T00:53:55.169Z,185.55
2022-12-22T00:56:40.776Z,177.52
2022-12-22T00:59:28.270Z,176.30
2022-12-22T01:02:13.636Z,181.48
2022-12-22T01:04:59.379Z,178.32
2022-12-22T01:07:45.664Z,183.60
2022-12-22T01:10:33.135Z,179.15
2022-12-22T01:13:18.449Z,178.75
2022-12-22T01:16:03.961Z,180.20
2022-12-22T01:18:49.328Z,184.32
2022-12-22T01:21:36.139Z,183.50
2022-12-22T01:24:23.916Z,179.88
2022-12-22T01:27:10.576Z,182.18
2022-12-22T01:29:56.032Z,185.82
2022-12-22T01:32:41.640Z,188.98
2022-12-22T01:35:35.562Z,192.05
2022-12-22T01:38:20.752Z,188.95
2022-12-22T01:41:06.677Z,184.13
2022-12-22T01:43:54.424Z,192.52
2022-12-22T01:46:42.421Z,182.55
2022-12-22T01:49:31.612Z,189.32
2022-12-22T01:52:17.409Z,180.30
2022-12-22T01:55:02.939Z,189.00
2022-12-22T01:57:49.503Z,186.60
2022-12-22T02:00:36.644Z,184.50
2022-12-22T02:03:22.303Z,189.73
2022-12-22T02:06:23.578Z,187.70
2022-12-22T02:09:19.008Z,188.88
2022-12-22T02:12:12.288Z,182.00
2022-12-22T02:15:05.585Z,193.73
2022-12-22T02:18:03.348Z,180.10
2022-12-22T02:21:00.487Z,183.13
2022-12-22T02:24:06.521Z,181.68
2022-12-22T02:26:56.612Z,175.35
2022-12-22T02:29:47.822Z,180.07
2022-12-22T02:32:33.683Z,173.50
2022-12-22T02:35:19.187Z,179.93
2022-12-22T02:38:16.408Z,186.23
2022-12-22T02:41:12.165Z,181.30
2022-12-22T02:44:18.797Z,186.68
2022-12-22T02:47:12.131Z,178.07
2022-12-22T02:50:02.017Z,180.82
2022-12-22T02:52:51.944Z,187.18
2022-12-22T02:55:39.409Z,189.43
2022-12-22T02:58:25.228Z,186.15
2022-12-22T03:01:12.021Z,181.35
2022-12-22T03:03:57.707Z,177.43
2022-12-22T03:06:43.144Z,171.35
2022-12-22T03:09:28.741Z,173.73
2022-12-22T03:12:14.182Z,171.55
2022-12-22T03:14:59.352Z,172.60
2022-12-22T03:17:46.236Z,167.35
2022-12-22T03:20:31.835Z,167.75
2022-12-22T03:23:22.363Z,159.88
2022-12-22T03:25:56.102Z,166.27
2022-12-22T03:28:26.536Z,168.00
2022-12-22T03:30:56.715Z,155.10
2022-12-22T03:33:26.185Z,164.25
2022-12-22T03:35:54.149Z,159.93
2022-12-22T03:38:22.410Z,151.35
2022-12-22T03:40:50.388Z,153.68
2022-12-22T03:43:36.501Z,152.38
2022-12-22T03:46:22.357Z,153.50
2022-12-22T03:49:05.573Z,158.10
2022-12-22T03:51:33.855Z,168.77
2022-12-22T03:54:02.144Z,164.75
2022-12-22T03:56:30.321Z,169.63
2022-12-22T03:58:58.422Z,171.35
2022-12-22T04:01:26.565Z,176.57
2022-12-22T04:03:56.013Z,181.77
2022-12-22T04:06:24.087Z,181.45
2022-12-22T04:08:52.329Z,173.90
2022-12-22T04:11:38.013Z,186.07
2022-12-22T04:14:06.135Z,187.13
2022-12-22T04:16:34.335Z,182.43
2022-12-22T04:19:04.193Z,184.05
2022-12-22T04:21:32.100Z,165.75
2022-12-22T04:24:00.104Z,167.13
2022-12-22T04:26:28.271Z,168.98
2022-12-22T04:28:56.585Z,168.80
2022-12-22T04:31:24.745Z,161.10
2022-12-22T04:33:53.073Z,155.68
2022-12-22T04:36:22.437Z,147.63
2022-12-22T04:38:50.396Z,142.63
2022-12-22T04:41:18.380Z,147.90
2022-12-22T04:43:46.485Z,146.88
2022-12-22T04:46:14.514Z,143.10
2022-12-22T04:48:42.642Z,135.52
2022-12-22T04:51:10.698Z,137.48
2022-12-22T04:53:40.124Z,137.18
2022-12-22T04:56:09.517Z,132.13
2022-12-22T04:58:37.798Z,128.63
2022-12-22T05:01:13.652Z,122.78
2022-12-22T05:03:41.939Z,124.55
2022-12-22T05:06:11.012Z,121.63
2022-12-22T05:08:40.394Z,120.57
2022-12-22T05:11:08.827Z,115.72
2022-12-22T05:13:36.875Z,114.10
2022-12-22T05:16:06.816Z,113.63
2022-12-22T05:18:35.592Z,115.95
2022-12-22T05:21:05.150Z,116.90
2022-12-22T05:23:33.215Z,109.85
2022-12-22T05:26:02.825Z,111.10
2022-12-22T05:28:32.114Z,112.88
2022-12-22T05:31:05.302Z,113.80
2022-12-22T05:33:33.419Z,109.55
2022-12-22T05:36:01.829Z,112.90
2022-12-22T05:38:29.816Z,116.15
2022-12-22T05:41:03.636Z,118.78
2022-12-22T05:43:33.636Z,110.13
2022-12-22T05:46:03.767Z,113.82
2022-12-22T05:48:37.915Z,107.07
2022-12-22T05:51:06.887Z,105.93
2022-12-22T05:53:34.892Z,112.53
2022-12-22T05:56:02.839Z,102.68
2022-12-22T05:58:30.779Z,102.47
2022-12-22T06:01:00.531Z,102.60
2022-12-22T06:03:29.658Z,102.72
2022-12-22T06:05:58.402Z,100.85
2022-12-22T06:08:26.894Z,102.38
2022-12-22T06:10:56.101Z,100.28
2022-12-22T06:13:24.922Z,94.00
2022-12-22T06:15:53.165Z,98.03
2022-12-22T06:18:22.808Z,100.63
2022-12-22T06:20:53.358Z,97.15
2022-12-22T06:23:21.537Z,93.97
2022-12-22T06:25:55.964Z,89.75
2022-12-22T06:28:23.941Z,90.40
2022-12-22T06:30:51.995Z,89.47
2022-12-22T06:33:20.058Z,93.35
2022-12-22T06:35:57.592Z,88.43
2022-12-22T06:38:26.971Z,89.82
2022-12-22T06:40:54.975Z,85.88
2022-12-22T06:43:22.039Z,87.18
2022-12-22T06:45:50.393Z,84.60
2022-12-22T06:48:18.324Z,77.03
2022-12-22T06:50:46.383Z,76.07
2022-12-22T06:53:15.898Z,80.40
2022-12-22T06:55:44.043Z,78.05
2022-12-22T06:58:12.025Z,71.97
2022-12-22T07:00:40.012Z,74.80
2022-12-22T07:03:08.218Z,77.85
2022-12-22T07:05:36.443Z,71.88
2022-12-22T07:08:08.773Z,70.55
2022-12-22T07:10:56.377Z,70.18
2022-12-22T07:13:24.581Z,76.78
2022-12-22T07:15:59.898Z,73.75
2022-12-22T07:18:30.449Z,75.00
2022-12-22T07:20:58.859Z,71.45
2022-12-22T07:23:27.899Z,71.57
2022-12-22T07:25:57.332Z,73.88
2022-12-22T07:28:25.780Z,75.97
2022-12-22T07:30:55.258Z,70.35
2022-12-22T07:33:23.752Z,72.28
2022-12-22T07:36:04.162Z,76.60
2022-12-22T07:38:37.232Z,76.65
2022-12-22T07:41:27.970Z,78.25
2022-12-22T07:43:55.918Z,76.97
2022-12-22T07:46:25.148Z,77.22
2022-12-22T07:49:11.019Z,85.22
2022-12-22T07:51:41.636Z,84.05
2022-12-22T07:54:10.931Z,88.75
2022-12-22T07:56:40.315Z,86.00
2022-12-22T07:59:08.333Z,87.07
2022-12-22T08:01:36.511Z,87.88
2022-12-22T08:04:04.958Z,93.13
2022-12-22T08:06:34.749Z,96.47
2022-12-22T08:09:02.713Z,95.00
2022-12-22T08:11:30.794Z,102.05
2022-12-22T08:14:01.872Z,99.60
2022-12-22T08:16:30.478Z,102.28
2022-12-22T08:18:58.630Z,101.95
2022-12-22T08:21:26.674Z,99.13
2022-12-22T08:23:54.582Z,98.90
2022-12-22T08:26:26.153Z,105.40
2022-12-22T08:28:57.942Z,107.90
2022-12-22T08:31:29.038Z,113.47
2022-12-22T08:33:59.629Z,114.18
2022-12-22T08:36:27.902Z,118.60
2022-12-22T08:38:57.354Z,120.38
2022-12-22T08:41:39.364Z,125.47
2022-12-22T08:44:07.365Z,125.28
2022-12-22T08:46:36.707Z,128.82
2022-12-22T08:49:04.780Z,127.40
2022-12-22T08:51:32.774Z,134.77
2022-12-22T08:54:05.576Z,133.45
2022-12-22T08:56:33.776Z,155.40
2022-12-22T08:59:05.106Z,139.45
2022-12-22T09:01:34.758Z,146.90
2022-12-22T09:04:04.545Z,151.57
2022-12-22T09:06:40.153Z,159.60
2022-12-22T09:09:10.530Z,161.57
2022-12-22T09:11:39.606Z,155.05
2022-12-22T09:14:08.878Z,158.35
2022-12-22T09:16:37.081Z,168.38
2022-12-22T09:19:07.790Z,173.10
2022-12-22T09:21:36.501Z,179.38
2022-12-22T09:24:07.458Z,178.65
2022-12-22T09:26:35.808Z,182.55
2022-12-22T09:29:04.377Z,179.32
2022-12-22T09:31:32.890Z,187.20
2022-12-22T09:34:00.943Z,184.20
2022-12-22T09:36:32.875Z,192.18
2022-12-22T09:39:04.942Z,193.65
2022-12-22T09:41:37.137Z,201.32
2022-12-22T09:44:07.197Z,209.60
2022-12-22T09:46:36.777Z,216.77
2022-12-22T09:49:07.265Z,225.73
2022-12-22T09:51:42.863Z,230.77
2022-12-22T09:54:13.365Z,234.57
2022-12-22T09:56:41.612Z,239.98
2022-12-22T09:59:14.840Z,233.57
2022-12-22T10:02:04.854Z,238.73
2022-12-22T10:04:50.020Z,244.95
2022-12-22T10:07:28.509Z,246.93
2022-12-22T10:09:56.523Z,248.75
2022-12-22T10:12:26.194Z,258.10
2022-12-22T10:14:55.305Z,258.10
2022-12-22T10:17:26.505Z,262.83
2022-12-22T10:20:07.002Z,265.92
2022-12-22T10:22:41.612Z,265.27
2022-12-22T10:25:39.763Z,267.05
2022-12-22T10:28:21.638Z,269.42
2022-12-22T10:33:19.820Z,263.27
2022-12-22T10:35:50.875Z,269.08
2022-12-22T10:38:30.597Z,270.48
2022-12-22T10:41:02.677Z,275.60
2022-12-22T10:43:33.857Z,263.77
2022-12-22T10:46:03.425Z,270.55
2022-12-22T10:48:33.292Z,266.98
2022-12-22T10:51:02.235Z,266.48
2022-12-22T10:53:47.444Z,271.13
2022-12-22T10:56:22.520Z,267.95
2022-12-22T10:58:52.701Z,260.70
2022-12-22T11:01:26.897Z,256.98
2022-12-22T11:03:55.148Z,249.13
2022-12-22T11:06:23.677Z,233.18
2022-12-22T11:08:52.960Z,219.35
2022-12-22T11:11:38.830Z,190.38
2022-12-22T11:14:17.774Z,162.93
2022-12-22T11:16:51.226Z,134.45
2022-12-22T11:19:41.262Z,125.60
2022-12-22T11:22:19.794Z,115.88
2022-12-22T11:25:02.931Z,111.22
2022-12-22T11:27:46.131Z,105.80
2022-12-22T11:30:18.126Z,94.25
2022-12-22T11:33:21.101Z,88.07
2022-12-22T11:38:28.111Z,84.20
2022-12-22T11:41:05.421Z,79.32
2022-12-22T11:43:45.083Z,80.80
2022-12-22T11:46:23.480Z,80.13
2022-12-22T11:49:05.746Z,81.50
2022-12-22T11:51:51.478Z,82.57
2022-12-22T11:54:49.941Z,84.35
2022-12-22T11:57:31.650Z,83.80
2022-12-22T12:00:07.099Z,83.88
2022-12-22T12:03:06.003Z,83.00
2022-12-22T12:05:44.642Z,79.93
2022-12-22T12:08:23.554Z,82.20
2022-12-22T12:10:55.070Z,80.47
2022-12-22T12:13:37.501Z,78.27
2022-12-22T12:16:15.392Z,73.45
2022-12-22T12:19:06.774Z,74.38
2022-12-22T12:21:43.855Z,83.22
2022-12-22T12:24:27.328Z,82.22
2022-12-22T12:27:03.351Z,80.57
2022-12-22T12:29:38.485Z,82.97
2022-12-22T12:32:13.086Z,80.10
2022-12-22T12:34:46.648Z,78.45
2022-12-22T12:37:26.410Z,82.05
2022-12-22T12:40:03.856Z,75.90
2022-12-22T12:42:34.705Z,78.82
2022-12-22T12:45:05.190Z,78.22
2022-12-22T12:47:34.390Z,72.13
2022-12-22T12:50:33.580Z,69.97
2022-12-22T12:53:08.551Z,73.60
2022-12-22T12:55:54.036Z,73.07
2022-12-22T12:58:53.699Z,74.18
2022-12-22T13:01:57.550Z,77.68
2022-12-22T13:05:14.754Z,74.15
2022-12-22T13:08:14.199Z,72.65
2022-12-22T13:10:45.931Z,75.28
2022-12-22T13:13:30.010Z,79.07
2022-12-22T13:16:24.431Z,77.00
2022-12-22T13:18:58.495Z,75.88
2022-12-22T13:24:27.187Z,82.43
2022-12-22T13:26:57.763Z,81.80
2022-12-22T13:29:30.272Z,80.20
2022-12-22T13:32:02.731Z,84.47
2022-12-22T13:35:04.425Z,90.07
2022-12-22T13:37:29.936Z,85.90
2022-12-22T13:40:19.443Z,79.40
2022-12-22T13:42:50.495Z,73.55
2022-12-22T13:45:40.429Z,72.30
2022-12-22T13:48:13.875Z,70.03
2022-12-22T13:50:47.239Z,69.60
2022-12-22T13:53:50.018Z,69.00
2022-12-22T13:56:16.832Z,64.70
2022-12-22T13:58:47.640Z,61.22
2022-12-22T14:01:18.174Z,61.78
2022-12-22T14:04:01.295Z,59.97
2022-12-22T14:06:34.097Z,65.15
2022-12-22T14:09:16.643Z,65.22
2022-12-22T14:14:26.162Z,68.80
2022-12-22T14:16:56.854Z,71.82
2022-12-22T14:19:26.663Z,73.03
2022-12-22T14:22:06.349Z,73.97
2022-12-22T14:24:38.846Z,71.10
2022-12-22T14:27:16.737Z,75.00
2022-12-22T14:29:44.773Z,74.25
2022-12-22T14:32:33.487Z,75.07
2022-12-22T14:35:01.443Z,76.72
2022-12-22T14:37:32.784Z,77.75
2022-12-22T14:40:01.134Z,81.57
2022-12-22T14:42:29.394Z,81.85
2022-12-22T14:44:58.314Z,86.93
2022-12-22T14:47:27.909Z,84.85
2022-12-22T14:49:59.211Z,85.25
2022-12-22T14:52:35.858Z,86.03
2022-12-22T14:55:05.307Z,89.63
2022-12-22T14:57:37.960Z,89.88
2022-12-22T15:00:10.456Z,89.85
2022-12-22T15:02:50.589Z,90.97
2022-12-22T15:05:27.734Z,96.50
2022-12-22T15:08:07.889Z,97.78
2022-12-22T15:10:40.765Z,102.80
2022-12-22T15:13:19.350Z,104.57
2022-12-22T15:15:47.359Z,101.68
2022-12-22T15:18:16.310Z,104.40
2022-12-22T15:20:44.312Z,106.00
2022-12-22T15:23:17.367Z,109.18
2022-12-22T15:25:45.807Z,107.15
2022-12-22T15:28:13.871Z,110.55
2022-12-22T15:30:42.460Z,110.55
2022-12-22T15:33:15.029Z,110.05
2022-12-22T15:35:43.793Z,113.25
2022-12-22T15:38:16.221Z,120.05
2022-12-22T15:40:44.718Z,117.35
2022-12-22T15:43:36.789Z,116.05
2022-12-22T15:46:04.750Z,115.72
2022-12-22T15:48:35.533Z,113.32
2022-12-22T15:51:05.332Z,115.85
2022-12-22T15:53:35.571Z,115.55
2022-12-22T15:56:03.807Z,118.35
2022-12-22T15:58:36.428Z,123.90
2022-12-22T16:01:04.459Z,119.07
2022-12-22T16:03:32.482Z,118.88
2022-12-22T16:06:01.212Z,116.18
2022-12-22T16:08:32.229Z,120.05
2022-12-22T16:11:01.717Z,124.43
2022-12-22T16:13:30.165Z,128.07
2022-12-22T16:15:59.425Z,131.40
2022-12-22T16:18:27.810Z,136.35
2022-12-22T16:20:56.666Z,131.07
2022-12-22T16:23:27.551Z,135.55
2022-12-22T16:26:01.722Z,135.55
2022-12-22T16:28:33.180Z,136.82
2022-12-22T16:31:01.993Z,140.63
2022-12-22T16:33:29.960Z,142.05
2022-12-22T16:35:57.914Z,141.77
2022-12-22T16:38:25.847Z,146.65
2022-12-22T16:40:55.006Z,149.82
2022-12-22T16:46:16.103Z,149.32
2022-12-22T16:48:47.071Z,152.35
2022-12-22T16:51:20.464Z,155.80
2022-12-22T16:53:48.648Z,159.63
2022-12-22T16:56:19.315Z,161.60
2022-12-22T16:58:47.869Z,159.45
2022-12-22T17:01:28.594Z,162.70
2022-12-22T17:03:57.495Z,160.10
2022-12-22T17:06:25.564Z,163.07
2022-12-22T17:08:53.960Z,156.00
2022-12-22T17:11:25.967Z,153.75
2022-12-22T17:14:00.942Z,158.48
2022-12-22T17:16:30.326Z,170.77
2022-12-22T17:18:59.843Z,170.15
2022-12-22T17:21:29.660Z,178.18
2022-12-22T17:24:03.685Z,175.65
2022-12-22T17:26:33.607Z,188.68
2022-12-22T17:29:01.736Z,201.27
2022-12-22T17:31:31.075Z,208.75
2022-12-22T17:33:59.217Z,217.85
2022-12-22T17:36:32.645Z,219.32
2022-12-22T17:39:02.332Z,224.15
2022-12-22T17:41:30.405Z,225.27
2022-12-22T17:43:58.386Z,232.02
2022-12-22T17:46:26.319Z,239.32
2022-12-22T17:48:55.628Z,239.45
2022-12-22T17:51:25.990Z,236.40
2022-12-22T17:53:54.809Z,240.07
2022-12-22T17:56:25.186Z,240.82
2022-12-22T17:58:53.496Z,247.00
2022-12-22T18:01:24.497Z,245.65
2022-12-22T18:03:52.763Z,241.30
2022-12-22T18:06:24.972Z,243.10
2022-12-22T18:08:54.239Z,241.77
2022-12-22T18:11:22.515Z,242.13
2022-12-22T18:13:51.582Z,239.23
2022-12-22T18:16:21.509Z,245.90
2022-12-22T18:18:49.889Z,242.10
2022-12-22T18:21:20.615Z,240.00
2022-12-22T18:23:51.483Z,238.00
2022-12-22T18:26:25.344Z,240.38
2022-12-22T18:28:54.184Z,247.43
2022-12-22T18:31:23.568Z,251.23
2022-12-22T18:33:51.870Z,249.55
2022-12-22T18:36:24.534Z,256.70
2022-12-22T18:38:53.825Z,251.85
2022-12-22T18:41:24.501Z,243.45
2022-12-22T18:43:54.316Z,245.88
2022-12-22T18:46:22.674Z,245.63
2022-12-22T18:48:50.684Z,250.88
2022-12-22T18:51:21.844Z,239.55
2022-12-22T18:53:51.096Z,241.88
2022-12-22T18:56:21.208Z,243.55
2022-12-22T18:58:49.138Z,244.52
2022-12-22T19:01:23.465Z,238.35
2022-12-22T19:03:53.800Z,235.25
2022-12-22T19:06:23.363Z,232.93
2022-12-22T19:08:52.607Z,233.27
2022-12-22T19:11:26.927Z,232.82
2022-12-22T19:13:54.866Z,233.05
2022-12-22T19:16:27.673Z,241.40
2022-12-22T19:18:57.113Z,231.75
2022-12-22T19:21:25.186Z,234.18
2022-12-22T19:23:53.196Z,234.43
2022-12-22T19:26:24.804Z,225.45
2022-12-22T19:28:55.375Z,234.97
2022-12-22T19:31:26.550Z,227.10
2022-12-22T19:33:55.983Z,228.85
2022-12-22T19:36:26.655Z,230.43
2022-12-22T19:39:02.685Z,226.13
2022-12-22T19:41:39.893Z,224.40
2022-12-22T19:44:18.347Z,214.60
2022-12-22T19:46:46.517Z,217.95
2022-12-22T19:49:16.857Z,214.68
2022-12-22T19:51:44.816Z,212.02
2022-12-22T19:54:12.792Z,212.43
2022-12-22T19:56:43.303Z,213.18
2022-12-22T19:59:26.279Z,208.13
2022-12-22T20:01:58.547Z,205.60
2022-12-22T20:04:26.995Z,207.02
2022-12-22T20:06:55.230Z,207.60
2022-12-22T20:09:23.179Z,195.73
2022-12-22T20:11:52.514Z,194.60
2022-12-22T20:14:20.945Z,183.05
2022-12-22T20:16:49.067Z,187.88
2022-12-22T20:19:17.263Z,181.85
2022-12-22T20:21:45.581Z,188.00
2022-12-22T20:24:22.019Z,177.73
2022-12-22T20:26:54.170Z,175.65
2022-12-22T20:29:25.790Z,172.32
2022-12-22T20:31:53.993Z,176.15
2022-12-22T20:34:22.000Z,166.43
2022-12-22T20:36:50.037Z,173.40
2022-12-22T20:39:20.387Z,167.68
2022-12-22T20:41:53.369Z,168.23
2022-12-22T20:44:24.006Z,163.02
2022-12-22T20:46:51.984Z,163.13
2022-12-22T20:49:19.948Z,161.77
2022-12-22T20:51:47.905Z,160.32
2022-12-22T20:54:17.046Z,170.38
2022-12-22T20:56:45.931Z,178.93
2022-12-22T20:59:17.083Z,178.82
2022-12-22T21:01:47.402Z,177.07
2022-12-22T21:04:15.968Z,172.30
2022-12-22T21:06:48.072Z,178.20
2022-12-22T21:09:16.140Z,179.93
2022-12-22T21:11:44.333Z,176.27
2022-12-22T21:14:12.689Z,185.73
2022-12-22T21:16:41.932Z,183.57
2022-12-22T21:19:16.993Z,177.70
2022-12-22T21:21:45.093Z,180.32
2022-12-22T21:24:13.093Z,185.25
2022-12-22T21:26:43.816Z,193.48
2022-12-22T21:29:17.507Z,193.95
2022-12-22T21:31:45.488Z,201.48
2022-12-22T21:34:14.848Z,196.05
2022-12-22T21:36:44.809Z,200.30
2022-12-22T21:39:23.572Z,197.88
2022-12-22T21:42:04.575Z,202.18
2022-12-22T21:44:34.286Z,195.18
2022-12-22T21:47:03.023Z,199.88
2022-12-22T21:49:33.520Z,191.65
2022-12-22T21:52:01.904Z,181.30
2022-12-22T21:54:29.918Z,177.32
2022-12-22T21:56:58.025Z,171.30
2022-12-22T21:59:26.370Z,172.88
2022-12-22T22:01:54.592Z,171.23
2022-12-22T22:04:23.082Z,167.57
2022-12-22T22:06:52.389Z,175.77
2022-12-22T22:09:20.468Z,164.60
2022-12-22T22:12:14.420Z,162.63
2022-12-22T22:14:42.422Z,160.25
2022-12-22T22:17:11.830Z,160.32
2022-12-22T22:19:39.818Z,165.40
2022-12-22T22:22:09.896Z,162.23
2022-12-22T22:24:37.987Z,167.43
2022-12-22T22:27:05.930Z,164.45
2022-12-22T22:29:33.897Z,167.45
2022-12-22T22:32:01.814Z,158.00
2022-12-22T22:34:29.855Z,154.05
2022-12-22T22:36:57.892Z,156.50
2022-12-22T22:39:27.400Z,159.40
2022-12-22T22:41:55.339Z,162.50
2022-12-22T22:44:23.524Z,163.23
2022-12-22T22:46:51.556Z,164.45
2022-12-22T22:49:26.109Z,168.43
2022-12-22T22:51:56.135Z,165.02
2022-12-22T22:54:24.167Z,167.07
2022-12-22T22:56:53.739Z,171.18
2022-12-22T22:59:21.753Z,170.63
2022-12-22T23:01:49.754Z,171.15
2022-12-22T23:04:19.195Z,169.60
2022-12-22T23:06:47.590Z,174.82
2022-12-22T23:09:15.629Z,178.82
2022-12-22T23:11:43.688Z,175.10
2022-12-22T23:14:13.191Z,175.07
2022-12-22T23:16:41.301Z,174.25
2022-12-22T23:19:09.260Z,174.35
2022-12-22T23:21:38.269Z,176.93
2022-12-22T23:24:06.997Z,180.70
2022-12-22T23:26:35.113Z,177.57
2022-12-22T23:29:04.087Z,178.90
2022-12-22T23:31:34.025Z,187.30
2022-12-22T23:34:03.016Z,186.13
2022-12-22T23:36:32.923Z,185.52
2022-12-22T23:39:00.992Z,178.35
2022-12-22T23:41:29.002Z,183.35
2022-12-22T23:43:57.477Z,180.00
2022-12-22T23:46:25.749Z,189.90
2022-12-22T23:48:57.654Z,191.38
2022-12-22T23:51:28.063Z,198.82
2022-12-22T23:53:57.118Z,196.48
2022-12-22T23:56:25.036Z,194.43
2022-12-22T23:58:55.188Z,187.73
